Time;durP1;ratioP1;P1;durP2;ratioP2;P2;SDS_P1;SDS_P2;PMS_P1;PMS_P2;Temp;Humidity;BMP_temperature;BMP_pressure;BME280_temperature;BME280_humidity;BME280_pressure;Samples;Min_cycle;Max_cycle;Signal;HPM_P1;HPM_P2
2024/01/11 00:01:10;;;;;;;50.08;20.58;;;-4.90;99.90;;;;;;5022323;28;20124;-63
2024/01/11 00:03:36;;;;;;;47.80;20.77;;;-4.90;99.90;;;;;;5010437;28;20061;-63
2024/01/11 00:06:01;;;;;;;44.55;20.08;;;-4.90;99.90;;;;;;5011118;28;20069;-63
2024/01/11 00:08:27;;;;;;;49.35;20.00;;;-5.00;99.90;;;;;;5008593;28;20038;-64
2024/01/11 00:10:53;;;;;;;48.83;19.77;;;-5.00;99.90;;;;;;5007387;28;20037;-63
2024/01/11 00:13:18;;;;;;;46.25;20.13;;;-5.10;99.90;;;;;;4997030;28;20494;-63
2024/01/11 00:15:44;;;;;;;47.10;20.42;;;-5.10;99.90;;;;;;5014893;28;20104;-63
2024/01/11 00:18:09;;;;;;;45.20;20.92;;;-5.10;99.90;;;;;;5010358;28;20084;-64
2024/01/11 00:20:35;;;;;;;50.00;20.95;;;-5.10;99.90;;;;;;5012684;28;20046;-63
2024/01/11 00:23:00;;;;;;;46.08;20.38;;;-5.10;99.90;;;;;;5014583;28;20034;-63
2024/01/11 00:25:26;;;;;;;44.33;19.02;;;-5.20;99.90;;;;;;5011589;28;20045;-64
2024/01/11 00:27:51;;;;;;;50.80;21.40;;;-5.20;99.90;;;;;;5007758;28;20041;-63
2024/01/11 00:30:17;;;;;;;55.72;22.23;;;-5.20;99.90;;;;;;5014613;28;20050;-63
2024/01/11 00:32:42;;;;;;;50.67;21.30;;;-5.20;99.90;;;;;;4996817;28;20137;-63
2024/01/11 00:35:08;;;;;;;45.97;20.92;;;-5.20;99.90;;;;;;4997406;28;20042;-63
2024/01/11 00:37:34;;;;;;;47.78;21.02;;;-5.30;99.90;;;;;;5005604;28;20120;-63
2024/01/11 00:39:59;;;;;;;49.92;21.80;;;-5.30;99.90;;;;;;4996843;28;20042;-63
2024/01/11 00:42:25;;;;;;;46.25;20.80;;;-5.30;99.90;;;;;;5007629;28;20093;-63
2024/01/11 00:44:50;;;;;;;49.50;21.63;;;-5.30;99.90;;;;;;5009520;28;20037;-64
2024/01/11 00:47:16;;;;;;;52.13;22.58;;;-5.30;99.90;;;;;;5014086;28;20042;-63
2024/01/11 00:49:42;;;;;;;53.40;22.58;;;-5.40;99.90;;;;;;5014769;28;20096;-63
2024/01/11 00:52:09;;;;;;;51.63;21.85;;;-5.30;99.90;;;;;;5003204;28;20038;-63
2024/01/11 00:54:35;;;;;;;48.85;21.27;;;-5.30;99.90;;;;;;4990520;28;20050;-64
2024/01/11 00:57:01;;;;;;;47.65;20.88;;;-5.30;99.90;;;;;;5014526;28;20121;-63
2024/01/11 00:59:27;;;;;;;50.90;23.20;;;-5.30;99.90;;;;;;5020493;28;20038;-63
2024/01/11 01:01:52;;;;;;;51.17;23.08;;;-5.30;99.90;;;;;;5008007;28;20676;-64
2024/01/11 01:04:18;;;;;;;48.45;21.60;;;-5.20;99.90;;;;;;5013839;28;20512;-63
2024/01/11 01:06:43;;;;;;;48.50;21.40;;;-5.20;99.90;;;;;;5014166;28;20044;-63
2024/01/11 01:09:09;;;;;;;57.10;22.90;;;-5.20;99.90;;;;;;5003630;28;20550;-63
2024/01/11 01:11:35;;;;;;;51.33;22.63;;;-5.20;99.90;;;;;;5013147;28;20096;-64
2024/01/11 01:14:00;;;;;;;45.53;20.55;;;-5.20;99.90;;;;;;5013440;28;20143;-63
2024/01/11 01:16:26;;;;;;;52.72;20.65;;;-5.20;99.90;;;;;;5001677;28;20126;-63
2024/01/11 01:18:51;;;;;;;51.58;21.42;;;-5.20;99.90;;;;;;4999400;28;20080;-64
2024/01/11 01:21:18;;;;;;;51.33;23.23;;;-5.30;99.90;;;;;;5013508;28;20544;-64
2024/01/11 01:23:43;;;;;;;51.30;23.00;;;-5.20;99.90;;;;;;5013587;28;20048;-64
2024/01/11 01:26:09;;;;;;;51.78;21.67;;;-5.30;99.90;;;;;;5002360;28;20041;-63
2024/01/11 01:28:34;;;;;;;51.05;22.10;;;-5.30;99.90;;;;;;5012514;28;20050;-63
2024/01/11 01:31:00;;;;;;;54.72;23.05;;;-5.30;99.90;;;;;;5013257;28;20048;-63
2024/01/11 01:33:25;;;;;;;49.72;21.58;;;-5.30;99.90;;;;;;5003331;28;20107;-64
2024/01/11 01:35:51;;;;;;;49.35;21.00;;;-5.30;99.90;;;;;;4993132;28;20458;-66
2024/01/11 01:38:17;;;;;;;51.10;21.48;;;-5.30;99.90;;;;;;5013606;28;20042;-66
2024/01/11 01:40:43;;;;;;;47.75;20.65;;;-5.20;99.90;;;;;;5007063;28;20033;-66
2024/01/11 01:43:09;;;;;;;42.75;18.52;;;-5.20;99.90;;;;;;5004254;28;20392;-66
2024/01/11 01:45:35;;;;;;;50.47;21.77;;;-5.10;99.90;;;;;;5012814;28;20042;-63
2024/01/11 01:48:01;;;;;;;52.03;21.58;;;-5.10;99.90;;;;;;5013428;28;20038;-63
2024/01/11 01:50:26;;;;;;;49.15;20.52;;;-5.10;99.90;;;;;;5004000;28;20034;-63
2024/01/11 01:52:53;;;;;;;54.63;22.17;;;-5.20;99.90;;;;;;5012377;28;20558;-64
2024/01/11 01:55:19;;;;;;;51.40;21.92;;;-5.20;99.90;;;;;;5012975;28;20057;-63
2024/01/11 01:57:46;;;;;;;52.47;22.85;;;-5.20;99.90;;;;;;5019973;28;20042;-63
2024/01/11 02:00:12;;;;;;;54.72;21.77;;;-5.30;99.90;;;;;;4989568;28;20050;-63
2024/01/11 02:02:39;;;;;;;50.03;22.60;;;-5.30;99.90;;;;;;5005882;28;20026;-63
2024/01/11 02:05:06;;;;;;;55.17;22.70;;;-5.30;99.90;;;;;;5012815;28;20038;-63
2024/01/11 02:07:32;;;;;;;56.25;22.42;;;-5.30;99.90;;;;;;5008153;28;20040;-63
2024/01/11 02:09:58;;;;;;;53.53;22.55;;;-5.30;99.90;;;;;;5012547;28;20034;-66
2024/01/11 02:12:25;;;;;;;55.88;23.02;;;-5.30;99.90;;;;;;5012465;28;20072;-66
2024/01/11 02:14:51;;;;;;;54.15;22.83;;;-5.40;99.90;;;;;;5009507;28;20070;-65
2024/01/11 02:17:17;;;;;;;52.95;21.90;;;-5.40;99.90;;;;;;5011150;28;20048;-66
2024/01/11 02:19:42;;;;;;;53.42;22.30;;;-5.40;99.90;;;;;;5012640;28;20038;-66
2024/01/11 02:22:48;;;;;;;52.85;21.17;;;-5.40;99.90;;;;;;5012747;28;20592;-66
2024/01/11 02:25:13;;;;;;;56.25;21.50;;;-5.40;99.90;;;;;;4921511;29;20043;-66
2024/01/11 02:27:46;;;;;;;51.13;20.02;;;-5.40;99.90;;;;;;5000942;28;20112;-65
2024/01/11 02:30:13;;;;;;;54.13;21.67;;;-5.50;99.90;;;;;;4995138;28;20070;-67
2024/01/11 02:32:38;;;;;;;54.67;22.05;;;-5.50;99.90;;;;;;4996183;28;20103;-66
2024/01/11 02:35:04;;;;;;;48.33;22.38;;;-5.50;99.90;;;;;;5007319;28;20042;-66
2024/01/11 02:37:30;;;;;;;52.13;21.50;;;-5.50;99.90;;;;;;5011803;28;20488;-66
2024/01/11 02:39:56;;;;;;;57.63;22.42;;;-5.60;99.90;;;;;;4996826;28;20049;-66
2024/01/11 02:42:22;;;;;;;57.85;21.85;;;-5.60;99.90;;;;;;5007783;28;20504;-66
2024/01/11 02:44:47;;;;;;;55.20;21.95;;;-5.60;99.90;;;;;;5012270;28;20072;-66
2024/01/11 02:47:13;;;;;;;53.22;22.50;;;-5.60;99.90;;;;;;5006560;28;20393;-67
2024/01/11 02:49:38;;;;;;;52.53;21.65;;;-5.60;99.90;;;;;;5003570;28;20680;-66
2024/01/11 02:52:04;;;;;;;48.75;20.58;;;-5.70;99.90;;;;;;5011748;28;20507;-65
2024/01/11 02:54:30;;;;;;;54.30;22.70;;;-5.70;99.90;;;;;;5012224;28;20472;-66
2024/01/11 02:56:57;;;;;;;53.03;21.13;;;-5.80;99.90;;;;;;5006986;28;20044;-65
2024/01/11 02:59:23;;;;;;;51.85;21.25;;;-5.80;99.90;;;;;;5009242;28;20052;-66
2024/01/11 03:01:49;;;;;;;50.90;21.85;;;-5.80;99.90;;;;;;5011814;28;20530;-65
2024/01/11 03:04:15;;;;;;;53.23;21.03;;;-5.80;99.90;;;;;;5011892;28;20046;-63
2024/01/11 03:06:41;;;;;;;57.90;22.37;;;-5.80;99.90;;;;;;4985992;28;20033;-63
2024/01/11 03:09:06;;;;;;;54.35;22.05;;;-5.90;99.90;;;;;;5011057;28;20045;-63
2024/01/11 03:11:32;;;;;;;59.67;23.10;;;-5.90;99.90;;;;;;5011897;28;20092;-63
2024/01/11 03:13:57;;;;;;;53.85;21.05;;;-5.90;99.90;;;;;;5002174;28;20037;-63
2024/01/11 03:16:23;;;;;;;54.35;21.52;;;-5.80;99.90;;;;;;5004878;28;20519;-63
2024/01/11 03:18:48;;;;;;;56.08;21.85;;;-5.80;99.90;;;;;;5011634;28;20523;-63
2024/01/11 03:21:14;;;;;;;51.63;21.67;;;-5.80;99.90;;;;;;5007911;28;20540;-64
2024/01/11 03:23:39;;;;;;;52.73;21.93;;;-5.80;99.90;;;;;;5001539;28;20528;-63
2024/01/11 03:26:16;;;;;;;52.97;22.33;;;-5.80;99.90;;;;;;5011638;28;20034;-63
2024/01/11 03:28:41;;;;;;;41.53;18.27;;;-5.70;99.90;;;;;;5011922;28;20037;-63
2024/01/11 03:31:09;;;;;;;56.38;23.25;;;-5.70;99.90;;;;;;5002850;28;20104;-63
2024/01/11 03:33:34;;;;;;;50.72;19.77;;;-5.60;99.90;;;;;;5010305;28;20523;-63
2024/01/11 03:36:05;;;;;;;41.72;17.38;;;-5.60;99.90;;;;;;5011154;28;20030;-63
2024/01/11 03:38:31;;;;;;;51.85;20.60;;;-5.60;99.90;;;;;;5012027;28;20096;-64
2024/01/11 03:40:57;;;;;;;45.95;18.67;;;-5.50;99.90;;;;;;5001027;28;20034;-63
2024/01/11 03:43:22;;;;;;;47.05;20.08;;;-5.50;99.90;;;;;;5008815;28;20034;-63
2024/01/11 03:45:48;;;;;;;41.28;18.40;;;-5.50;99.90;;;;;;5012290;28;20121;-63
2024/01/11 03:48:13;;;;;;;49.80;21.00;;;-5.50;99.90;;;;;;5005609;28;20034;-64
2024/01/11 03:50:39;;;;;;;48.60;21.10;;;-5.50;99.90;;;;;;5014800;28;20042;-63
2024/01/11 03:53:04;;;;;;;51.42;21.05;;;-5.50;99.90;;;;;;5015517;28;20037;-63
2024/01/11 03:55:30;;;;;;;45.25;19.20;;;-5.60;99.90;;;;;;5015768;28;20065;-63
2024/01/11 03:57:55;;;;;;;55.05;22.85;;;-5.60;99.90;;;;;;5013823;28;20034;-64
2024/01/11 04:00:21;;;;;;;48.65;19.73;;;-5.60;99.90;;;;;;5023151;28;20041;-63
2024/01/11 04:02:46;;;;;;;49.95;20.15;;;-5.60;99.90;;;;;;4991113;28;20045;-63
2024/01/11 04:05:12;;;;;;;52.05;19.77;;;-5.70;99.90;;;;;;4997161;28;20030;-63
2024/01/11 04:07:37;;;;;;;51.58;21.38;;;-5.70;99.90;;;;;;5014444;28;20476;-64
2024/01/11 04:10:03;;;;;;;57.42;22.45;;;-5.70;99.90;;;;;;5011963;28;20531;-63
2024/01/11 04:12:29;;;;;;;49.30;20.60;;;-5.80;99.90;;;;;;5002863;28;20038;-63
2024/01/11 04:14:55;;;;;;;51.42;21.10;;;-5.80;99.90;;;;;;4997160;28;20034;-63
2024/01/11 04:17:20;;;;;;;51.63;22.23;;;-5.80;99.90;;;;;;5015129;28;20033;-63
2024/01/11 04:19:46;;;;;;;53.93;21.73;;;-5.80;99.90;;;;;;5003042;28;20034;-64
2024/01/11 04:22:11;;;;;;;50.63;20.67;;;-5.80;99.90;;;;;;5012321;28;20038;-63
2024/01/11 04:24:37;;;;;;;53.80;23.20;;;-5.80;99.90;;;;;;5014428;28;20038;-63
2024/01/11 04:27:02;;;;;;;48.63;19.27;;;-5.90;99.90;;;;;;5014965;28;20081;-63
2024/01/11 04:29:28;;;;;;;61.55;22.98;;;-5.80;99.90;;;;;;4998828;28;20035;-64
2024/01/11 04:31:54;;;;;;;56.53;21.58;;;-5.80;99.90;;;;;;4991281;28;20038;-63
2024/01/11 04:34:19;;;;;;;51.93;21.93;;;-5.80;99.90;;;;;;5014227;28;20108;-63
2024/01/11 04:36:45;;;;;;;54.42;20.95;;;-5.80;99.90;;;;;;5006827;28;20033;-65
2024/01/11 04:39:11;;;;;;;50.83;20.23;;;-5.80;99.90;;;;;;5014265;28;20048;-65
2024/01/11 04:41:38;;;;;;;52.70;21.77;;;-5.80;99.90;;;;;;5014093;28;20049;-64
2024/01/11 04:44:04;;;;;;;56.78;22.52;;;-5.80;99.90;;;;;;5011046;28;20070;-65
2024/01/11 04:46:29;;;;;;;57.30;21.85;;;-5.90;99.90;;;;;;4987934;28;20081;-66
2024/01/11 04:48:55;;;;;;;55.80;22.60;;;-5.80;99.90;;;;;;5013868;28;20065;-65
2024/01/11 04:51:20;;;;;;;52.35;21.52;;;-5.90;99.90;;;;;;5007509;28;20034;-66
2024/01/11 04:53:46;;;;;;;50.03;19.80;;;-5.90;99.90;;;;;;4996894;28;20093;-65
2024/01/11 04:56:14;;;;;;;51.20;20.98;;;-5.90;99.90;;;;;;5002948;28;20045;-66
2024/01/11 04:58:42;;;;;;;39.17;15.27;;;-5.90;99.90;;;;;;5016279;28;20089;-65
2024/01/11 05:01:12;;;;;;;46.07;17.27;;;-5.90;99.90;;;;;;5010557;28;20053;-63
2024/01/11 05:03:38;;;;;;;48.33;21.00;;;-6.00;99.90;;;;;;5004447;28;20487;-63
2024/01/11 05:06:04;;;;;;;54.23;20.63;;;-6.00;99.90;;;;;;5013943;28;20116;-63
2024/01/11 05:08:29;;;;;;;57.20;23.93;;;-6.00;99.90;;;;;;5014380;28;20408;-65
2024/01/11 05:10:55;;;;;;;52.13;20.20;;;-6.00;99.90;;;;;;5005782;28;20037;-64
2024/01/11 05:13:21;;;;;;;47.93;18.37;;;-6.00;99.90;;;;;;5013047;28;20057;-63
2024/01/11 05:15:46;;;;;;;41.83;17.17;;;-6.00;99.90;;;;;;5013655;28;20034;-63
2024/01/11 05:18:12;;;;;;;45.17;18.40;;;-6.00;99.90;;;;;;5003754;28;20045;-63
2024/01/11 05:20:38;;;;;;;49.07;20.17;;;-6.00;99.90;;;;;;4999075;28;20041;-64
2024/01/11 05:23:04;;;;;;;46.53;19.03;;;-6.00;99.90;;;;;;5013267;28;20439;-64
2024/01/11 05:25:39;;;;;;;57.17;22.43;;;-5.90;99.90;;;;;;5013986;28;20069;-63
2024/01/11 05:28:04;;;;;;;52.40;21.00;;;-5.80;99.90;;;;;;5001930;28;20048;-63
2024/01/11 05:30:30;;;;;;;50.10;19.03;;;-5.80;99.90;;;;;;5012983;28;20416;-63
2024/01/11 05:32:56;;;;;;;50.25;19.60;;;-5.70;99.90;;;;;;5013444;28;20093;-65
2024/01/11 05:35:27;;;;;;;23.95;11.40;;;-5.70;99.90;;;;;;5008755;28;20052;-63
2024/01/11 05:37:54;;;;;;;41.83;18.08;;;-5.60;99.90;;;;;;5005219;28;20496;-63
2024/01/11 05:40:20;;;;;;;57.47;21.17;;;-5.60;99.90;;;;;;5013206;28;20099;-63
2024/01/11 05:42:45;;;;;;;27.17;13.10;;;-5.60;99.90;;;;;;5008775;28;20045;-63
2024/01/11 05:45:11;;;;;;;25.25;10.82;;;-5.50;99.90;;;;;;4999614;28;20069;-63
2024/01/11 05:47:37;;;;;;;49.70;20.27;;;-5.40;99.90;;;;;;5019584;28;20069;-63
2024/01/11 05:50:02;;;;;;;32.35;12.43;;;-5.40;99.90;;;;;;5005177;28;20037;-65
2024/01/11 05:52:28;;;;;;;44.70;19.45;;;-5.40;99.90;;;;;;5006438;28;20492;-64
2024/01/11 05:54:54;;;;;;;55.08;20.23;;;-5.40;99.90;;;;;;5003219;28;20050;-63
2024/01/11 05:57:19;;;;;;;50.87;20.93;;;-5.50;99.90;;;;;;5002930;28;20502;-63
2024/01/11 05:59:45;;;;;;;57.50;23.35;;;-5.40;99.90;;;;;;4999866;28;20053;-63
2024/01/11 06:02:11;;;;;;;56.80;20.83;;;-5.40;99.90;;;;;;4991319;28;20046;-63
2024/01/11 06:04:37;;;;;;;54.55;20.58;;;-5.30;99.90;;;;;;4991800;28;20518;-63
2024/01/11 06:07:02;;;;;;;55.15;21.92;;;-5.20;99.90;;;;;;5004470;28;20034;-64
2024/01/11 06:09:28;;;;;;;53.45;21.85;;;-5.10;99.90;;;;;;4990805;28;20038;-63
2024/01/11 06:11:53;;;;;;;50.17;20.83;;;-5.00;99.90;;;;;;5009402;28;20488;-63
2024/01/11 06:14:19;;;;;;;51.53;19.98;;;-4.90;99.90;;;;;;5008227;28;20041;-64
2024/01/11 06:16:45;;;;;;;47.00;18.77;;;-4.70;99.90;;;;;;5004119;28;20073;-62
2024/01/11 06:19:11;;;;;;;55.40;22.15;;;-4.70;99.90;;;;;;4989086;28;20674;-63
2024/01/11 06:21:36;;;;;;;56.00;23.05;;;-4.40;99.90;;;;;;4991812;28;20049;-63
2024/01/11 06:24:03;;;;;;;54.15;21.50;;;-4.40;99.90;;;;;;4991644;28;20038;-63
2024/01/11 06:26:29;;;;;;;55.72;23.17;;;-4.30;99.90;;;;;;4984599;28;20049;-65
2024/01/11 06:28:54;;;;;;;52.92;22.15;;;-4.20;99.90;;;;;;5008539;28;20124;-66
2024/01/11 06:31:20;;;;;;;40.50;15.88;;;-4.20;99.90;;;;;;5010770;28;20037;-66
2024/01/11 06:33:45;;;;;;;51.13;22.08;;;-4.10;99.90;;;;;;4999520;28;20037;-66
2024/01/11 06:36:11;;;;;;;53.03;23.50;;;-4.10;99.90;;;;;;5002021;28;20033;-66
2024/01/11 06:38:37;;;;;;;59.60;22.25;;;-4.00;99.90;;;;;;5012201;28;20523;-66
2024/01/11 06:41:02;;;;;;;53.28;20.83;;;-4.00;99.90;;;;;;5012659;28;20030;-65
2024/01/11 06:43:28;;;;;;;52.58;22.58;;;-4.00;99.90;;;;;;4994939;28;20092;-64
2024/01/11 06:45:53;;;;;;;59.45;22.13;;;-3.90;99.90;;;;;;5005926;28;20041;-66
2024/01/11 06:48:19;;;;;;;59.30;22.15;;;-3.90;99.90;;;;;;4998488;28;20054;-65
2024/01/11 06:50:44;;;;;;;54.88;22.85;;;-3.80;99.90;;;;;;5002267;28;20136;-65
2024/01/11 06:53:10;;;;;;;52.78;21.90;;;-3.80;99.90;;;;;;5007677;28;20065;-65
2024/01/11 06:55:36;;;;;;;61.47;23.55;;;-3.80;99.90;;;;;;5008817;28;20072;-66
2024/01/11 06:58:02;;;;;;;55.22;21.92;;;-3.80;99.90;;;;;;4985570;28;20073;-66
2024/01/11 07:00:27;;;;;;;55.67;22.73;;;-3.70;99.90;;;;;;4987237;28;20034;-64
2024/01/11 07:02:53;;;;;;;59.63;24.00;;;-3.70;99.90;;;;;;4990893;28;20037;-65
2024/01/11 07:05:19;;;;;;;57.63;23.88;;;-3.70;99.90;;;;;;5008644;28;20609;-66
2024/01/11 07:07:45;;;;;;;54.03;22.55;;;-3.70;99.90;;;;;;4999940;28;20037;-66
2024/01/11 07:10:10;;;;;;;63.85;22.08;;;-3.60;99.90;;;;;;4957361;28;20042;-66
2024/01/11 07:12:37;;;;;;;57.03;23.40;;;-3.60;99.90;;;;;;5009608;28;20069;-65
2024/01/11 07:15:04;;;;;;;57.78;23.45;;;-3.60;99.90;;;;;;4999374;28;20049;-65
2024/01/11 07:17:30;;;;;;;55.70;22.92;;;-3.50;99.90;;;;;;4986810;28;20488;-65
2024/01/11 07:19:56;;;;;;;55.55;23.27;;;-3.50;99.90;;;;;;5011986;28;20044;-65
2024/01/11 07:22:21;;;;;;;60.40;24.00;;;-3.40;99.90;;;;;;5011426;28;20088;-65
2024/01/11 07:24:47;;;;;;;62.70;26.02;;;-3.40;99.90;;;;;;4997455;28;20090;-65
2024/01/11 07:27:12;;;;;;;56.03;22.75;;;-3.40;99.90;;;;;;5001182;28;20042;-65
2024/01/11 07:29:38;;;;;;;56.25;24.17;;;-3.40;99.90;;;;;;4992264;28;20546;-65
2024/01/11 07:32:04;;;;;;;58.53;23.65;;;-3.30;99.90;;;;;;5010711;28;20040;-67
2024/01/11 07:34:30;;;;;;;65.57;24.25;;;-3.30;99.90;;;;;;4990213;28;20073;-67
2024/01/11 07:36:56;;;;;;;60.22;23.55;;;-3.20;99.90;;;;;;4987140;28;20488;-66
2024/01/11 07:39:22;;;;;;;58.63;23.75;;;-3.20;99.90;;;;;;5007372;28;20034;-66
2024/01/11 07:41:48;;;;;;;57.35;23.40;;;-3.10;99.90;;;;;;5004994;28;20041;-66
2024/01/11 07:44:13;;;;;;;59.92;24.55;;;-3.10;99.90;;;;;;4993365;28;20037;-66
2024/01/11 07:46:39;;;;;;;52.65;21.27;;;-3.10;99.90;;;;;;5010796;28;20056;-65
2024/01/11 07:49:05;;;;;;;62.47;23.63;;;-3.10;99.90;;;;;;5011488;28;20391;-65
2024/01/11 07:51:30;;;;;;;55.55;22.90;;;-3.00;99.90;;;;;;4999148;28;20520;-66
2024/01/11 07:53:56;;;;;;;61.13;23.23;;;-3.00;99.90;;;;;;5010748;28;20388;-67
2024/01/11 07:56:22;;;;;;;56.90;22.98;;;-3.00;99.90;;;;;;5004940;28;20043;-66
2024/01/11 07:58:48;;;;;;;54.78;23.35;;;-3.00;99.90;;;;;;5008972;28;20515;-67
2024/01/11 08:01:15;;;;;;;54.33;22.58;;;-2.90;99.90;;;;;;5011172;28;20038;-66
2024/01/11 08:03:41;;;;;;;57.85;22.95;;;-2.90;99.90;;;;;;5011265;28;20045;-67
2024/01/11 08:06:07;;;;;;;55.67;21.63;;;-2.80;99.90;;;;;;4983080;28;20497;-67
2024/01/11 08:08:33;;;;;;;58.67;23.75;;;-2.80;99.90;;;;;;5009342;28;20041;-65
2024/01/11 08:10:59;;;;;;;58.10;24.25;;;-2.80;99.90;;;;;;5010769;28;20088;-65
2024/01/11 08:13:24;;;;;;;59.83;22.98;;;-2.70;99.90;;;;;;5001736;28;20456;-66
2024/01/11 08:15:50;;;;;;;58.00;23.05;;;-2.70;99.90;;;;;;4992758;28;20401;-67
2024/01/11 08:18:18;;;;;;;57.35;22.60;;;-2.60;99.90;;;;;;5000779;28;20084;-67
2024/01/11 08:20:44;;;;;;;61.72;24.63;;;-2.60;99.90;;;;;;4993294;28;20049;-68
2024/01/11 08:23:10;;;;;;;63.85;24.73;;;-2.60;99.90;;;;;;5011037;28;20038;-67
2024/01/11 08:25:35;;;;;;;63.83;23.33;;;-2.60;99.90;;;;;;4998219;28;20041;-67
2024/01/11 08:28:02;;;;;;;62.47;24.05;;;-2.50;99.90;;;;;;5003523;28;20100;-66
2024/01/11 08:30:28;;;;;;;67.97;24.35;;;-2.40;99.90;;;;;;5004989;28;20037;-64
2024/01/11 08:32:54;;;;;;;55.47;23.45;;;-2.40;99.90;;;;;;5013333;28;20042;-65
2024/01/11 08:35:21;;;;;;;61.95;24.48;;;-2.40;99.90;;;;;;4995386;28;20069;-65
2024/01/11 08:37:46;;;;;;;60.65;25.13;;;-2.30;99.90;;;;;;5012329;28;20066;-67
2024/01/11 08:40:12;;;;;;;60.25;23.95;;;-2.30;99.90;;;;;;4979524;28;20046;-67
2024/01/11 08:42:39;;;;;;;63.80;24.20;;;-2.30;99.90;;;;;;4992157;28;20393;-67
2024/01/11 08:45:07;;;;;;;62.50;25.33;;;-2.20;99.90;;;;;;5011796;28;20523;-65
2024/01/11 08:47:38;;;;;;;66.72;25.88;;;-2.20;99.90;;;;;;4998532;28;20065;-66
2024/01/11 08:50:06;;;;;;;65.50;25.60;;;-2.20;99.90;;;;;;5012877;28;20045;-65
2024/01/11 08:52:32;;;;;;;65.85;26.15;;;-2.10;99.90;;;;;;4995509;28;20041;-66
2024/01/11 08:54:58;;;;;;;64.55;26.60;;;-2.10;99.90;;;;;;5010804;28;20025;-65
2024/01/11 08:57:23;;;;;;;68.82;25.88;;;-2.10;99.90;;;;;;5016022;28;20554;-65
2024/01/11 08:59:49;;;;;;;58.38;23.92;;;-2.10;99.90;;;;;;4996450;28;20513;-64
2024/01/11 09:02:15;;;;;;;72.60;27.13;;;-2.00;99.90;;;;;;5005264;28;20031;-64
2024/01/11 09:04:40;;;;;;;70.50;26.73;;;-2.00;99.90;;;;;;4998015;28;20100;-64
2024/01/11 09:07:06;;;;;;;61.20;25.55;;;-2.00;99.90;;;;;;4991313;28;20095;-66
2024/01/11 09:09:31;;;;;;;68.00;27.35;;;-1.90;99.90;;;;;;5005059;28;20042;-64
2024/01/11 09:11:57;;;;;;;68.57;24.75;;;-1.90;99.90;;;;;;5010698;28;20045;-64
2024/01/11 09:14:23;;;;;;;63.95;25.58;;;-1.90;99.90;;;;;;5013127;28;20046;-64
2024/01/11 09:16:49;;;;;;;62.15;25.15;;;-1.80;99.90;;;;;;4993150;28;20068;-63
2024/01/11 09:19:16;;;;;;;68.78;26.33;;;-1.80;99.90;;;;;;5005445;28;20069;-66
2024/01/11 09:21:42;;;;;;;62.60;24.17;;;-1.70;99.90;;;;;;4998272;28;20500;-64
2024/01/11 09:24:08;;;;;;;63.53;25.15;;;-1.70;99.90;;;;;;5008317;28;20117;-64
2024/01/11 09:26:33;;;;;;;60.78;24.00;;;-1.60;99.90;;;;;;5012829;28;20129;-66
2024/01/11 09:28:59;;;;;;;63.03;25.17;;;-1.60;99.90;;;;;;5003829;28;20037;-66
2024/01/11 09:31:24;;;;;;;61.10;23.52;;;-1.50;99.90;;;;;;5010963;28;20040;-65
2024/01/11 09:33:50;;;;;;;62.83;25.92;;;-1.40;99.90;;;;;;5004322;28;20495;-64
2024/01/11 09:36:16;;;;;;;57.55;24.77;;;-1.40;99.90;;;;;;4989737;28;20124;-66
2024/01/11 09:38:41;;;;;;;61.83;24.63;;;-1.40;99.90;;;;;;5009749;28;20041;-66
2024/01/11 09:41:10;;;;;;;59.58;22.65;;;-1.30;99.90;;;;;;5013083;28;20061;-65
2024/01/11 09:43:36;;;;;;;56.90;23.63;;;-1.30;99.90;;;;;;5012744;28;20056;-66
2024/01/11 09:46:05;;;;;;;58.00;24.17;;;-1.20;99.90;;;;;;4997002;28;20432;-66
2024/01/11 09:48:34;;;;;;;61.50;24.70;;;-1.20;99.90;;;;;;5010839;28;20030;-66
2024/01/11 09:51:01;;;;;;;63.70;25.90;;;-1.20;99.90;;;;;;5012527;28;20492;-66
2024/01/11 09:53:28;;;;;;;62.67;23.40;;;-1.20;99.90;;;;;;4995483;28;20061;-65
2024/01/11 09:55:55;;;;;;;62.13;23.85;;;-1.10;99.90;;;;;;5010731;28;20065;-64
2024/01/11 09:58:22;;;;;;;68.45;26.63;;;-1.10;99.90;;;;;;5012132;28;20507;-64
2024/01/11 10:00:55;;;;;;;61.63;26.23;;;-1.00;99.90;;;;;;5012558;28;20125;-64
2024/01/11 10:03:22;;;;;;;58.17;22.10;;;-1.00;99.90;;;;;;4993492;28;20092;-66
2024/01/11 10:05:50;;;;;;;63.15;24.98;;;-0.90;99.90;;;;;;5009520;28;20030;-67
2024/01/11 10:08:19;;;;;;;63.67;26.73;;;-0.90;99.90;;;;;;5010891;28;20080;-67
2024/01/11 10:10:44;;;;;;;66.78;27.67;;;-0.80;99.90;;;;;;5004621;28;20481;-66
2024/01/11 10:13:10;;;;;;;70.18;27.15;;;-0.70;99.90;;;;;;5011780;28;20076;-64
2024/01/11 10:15:36;;;;;;;63.33;25.20;;;-0.70;99.90;;;;;;4995044;28;20496;-64
2024/01/11 10:18:02;;;;;;;59.22;24.83;;;-0.60;99.90;;;;;;5005248;28;20039;-65
2024/01/11 10:20:29;;;;;;;67.95;25.67;;;-0.60;99.90;;;;;;5008516;28;20133;-64
2024/01/11 10:22:56;;;;;;;62.70;23.70;;;-0.50;99.90;;;;;;5009042;28;20034;-67
2024/01/11 10:25:23;;;;;;;63.03;25.25;;;-0.50;99.90;;;;;;5012109;28;20037;-64
2024/01/11 10:27:48;;;;;;;55.05;23.63;;;-0.40;99.90;;;;;;5002299;28;20033;-64
2024/01/11 10:30:16;;;;;;;72.30;25.98;;;-0.30;99.90;;;;;;5009479;28;20088;-63
2024/01/11 10:32:42;;;;;;;61.22;25.23;;;-0.30;99.90;;;;;;5004653;28;20132;-64
2024/01/11 10:35:08;;;;;;;61.70;24.90;;;-0.20;99.90;;;;;;5006620;28;20176;-64
2024/01/11 10:37:33;;;;;;;65.47;24.30;;;-0.20;99.90;;;;;;5083139;23;20136;-68
2024/01/11 10:40:09;;;;;;;60.03;25.80;;;-0.10;99.90;;;;;;5091122;22;20041;-68
2024/01/11 10:42:37;;;;;;;64.10;24.15;;;-0.10;99.90;;;;;;5015575;28;20414;-69
2024/01/11 10:45:07;;;;;;;60.47;24.50;;;-0.10;99.90;;;;;;5060435;28;20115;-69
2024/01/11 10:47:36;;;;;;;59.90;24.33;;;0.00;99.90;;;;;;5024801;28;20043;-69
2024/01/11 10:50:42;;;;;;;65.60;24.50;;;0.00;99.90;;;;;;5036594;28;20264;-69
2024/01/11 10:53:28;;;;;;;61.85;23.58;;;0.00;99.90;;;;;;5016884;28;20044;-67
2024/01/11 10:55:55;;;;;;;62.08;24.45;;;0.10;99.90;;;;;;5043084;28;20041;-67
2024/01/11 10:58:23;;;;;;;62.65;23.50;;;0.10;99.90;;;;;;5029834;28;20033;-67
2024/01/11 11:00:51;;;;;;;67.15;26.55;;;0.10;99.90;;;;;;5028380;28;20402;-67
2024/01/11 11:03:18;;;;;;;66.65;25.52;;;0.20;99.90;;;;;;5028240;28;20048;-67
2024/01/11 11:05:44;;;;;;;59.80;24.27;;;0.20;99.90;;;;;;5024984;28;20127;-67
2024/01/11 11:08:11;;;;;;;60.35;23.05;;;0.20;99.90;;;;;;5049744;28;20047;-67
2024/01/11 11:10:40;;;;;;;66.53;24.92;;;0.30;99.90;;;;;;5058704;28;20052;-67
2024/01/11 11:13:06;;;;;;;63.28;24.20;;;0.30;99.90;;;;;;5041345;28;20584;-67
2024/01/11 11:15:33;;;;;;;77.47;24.73;;;0.30;99.90;;;;;;5052013;28;20123;-68
2024/01/11 11:17:58;;;;;;;60.65;24.85;;;0.30;99.90;;;;;;5043493;28;20036;-67
2024/01/11 11:20:24;;;;;;;64.00;23.52;;;0.30;99.90;;;;;;5044405;28;20444;-68
2024/01/11 11:23:06;;;;;;;66.93;23.70;;;0.40;99.90;;;;;;5070659;28;20056;-67
2024/01/11 11:25:33;;;;;;;60.90;23.45;;;0.40;99.90;;;;;;5050348;28;20388;-68
2024/01/11 11:28:04;;;;;;;59.45;23.52;;;0.40;99.90;;;;;;5042402;28;20112;-67
2024/01/11 11:30:30;;;;;;;66.90;23.17;;;0.40;99.90;;;;;;5059507;28;20535;-69
2024/01/11 11:32:56;;;;;;;59.88;22.67;;;0.50;99.90;;;;;;5040622;28;20174;-68
2024/01/11 11:35:25;;;;;;;55.05;22.27;;;0.50;99.90;;;;;;5052181;28;20425;-68
2024/01/11 11:37:57;;;;;;;58.15;22.58;;;0.60;99.90;;;;;;5054918;28;20037;-68
2024/01/11 11:40:44;;;;;;;58.33;22.13;;;0.60;99.90;;;;;;5041560;28;20024;-68
2024/01/11 11:43:10;;;;;;;59.67;22.13;;;0.70;99.90;;;;;;5038362;28;20045;-68
2024/01/11 11:45:38;;;;;;;60.80;23.20;;;0.70;99.90;;;;;;5052686;28;20512;-68
2024/01/11 11:48:28;;;;;;;67.15;23.00;;;0.70;99.90;;;;;;5041295;28;20041;-69
2024/01/11 11:51:11;;;;;;;54.75;22.00;;;0.70;99.90;;;;;;5034294;28;20040;-68
2024/01/11 11:53:38;;;;;;;58.10;22.10;;;0.80;99.90;;;;;;5040642;28;20562;-68
2024/01/11 11:56:04;;;;;;;63.40;23.52;;;0.80;99.90;;;;;;5047537;28;20052;-68
2024/01/11 11:58:31;;;;;;;56.20;23.25;;;0.80;99.90;;;;;;5044443;28;20041;-68
2024/01/11 12:00:58;;;;;;;59.20;22.90;;;0.80;99.90;;;;;;5029282;28;20495;-69
2024/01/11 12:03:37;;;;;;;58.35;22.80;;;0.90;99.90;;;;;;5015361;28;20033;-68
2024/01/11 12:06:03;;;;;;;62.22;22.27;;;0.90;99.90;;;;;;5031793;28;20047;-68
2024/01/11 12:08:29;;;;;;;58.22;21.33;;;1.00;99.90;;;;;;5043221;28;20036;-68
2024/01/11 12:10:55;;;;;;;52.58;20.33;;;1.00;99.90;;;;;;5053846;28;20085;-68
2024/01/11 12:13:20;;;;;;;53.65;20.30;;;0.90;99.90;;;;;;5054324;28;20521;-68
2024/01/11 12:26:55;;;;;;;54.75;19.67;;;1.10;99.90;;;;;;5092919;22;20078;-68
2024/01/11 12:29:21;;;;;;;51.22;19.85;;;1.10;99.90;;;;;;5052669;28;20052;-68
2024/01/11 12:31:47;;;;;;;49.13;19.73;;;1.10;99.90;;;;;;5045462;28;20044;-69
2024/01/11 12:34:13;;;;;;;49.97;19.52;;;1.10;99.90;;;;;;5036293;28;20383;-69
2024/01/11 12:36:40;;;;;;;61.88;20.98;;;1.10;99.90;;;;;;5043410;22;20048;-63